sensor_id;sensor_type;location;lat;lon;timestamp;temperature;humidity
42099;DHT22;27758;55.900;8.516;2023-01-16T00:02:01;5.30;99.90
42099;DHT22;27758;55.900;8.516;2023-01-16T00:04:27;5.30;99.90
42099;DHT22;27758;55.900;8.516;2023-01-16T00:06:54;5.30;99.90
42099;DHT22;27758;55.900;8.516;2023-01-16T00:09:20;5.40;99.90
42099;DHT22;27758;55.900;8.516;2023-01-16T00:11:46;5.30;99.90
42099;DHT22;27758;55.900;8.516;2023-01-16T00:14:12;5.30;99.90
42099;DHT22;27758;55.900;8.516;2023-01-16T00:16:38;5.30;99.90
42099;DHT22;27758;55.900;8.516;2023-01-16T00:19:04;5.30;99.90
42099;DHT22;27758;55.900;8.516;2023-01-16T00:21:29;5.30;99.90
42099;DHT22;27758;55.900;8.516;2023-01-16T00:23:56;5.20;99.90
42099;DHT22;27758;55.900;8.516;2023-01-16T00:26:23;5.20;99.90
42099;DHT22;27758;55.900;8.516;2023-01-16T00:28:49;5.20;99.90
42099;DHT22;27758;55.900;8.516;2023-01-16T00:31:15;5.20;99.90
42099;DHT22;27758;55.900;8.516;2023-01-16T00:33:42;5.20;99.90
42099;DHT22;27758;55.900;8.516;2023-01-16T00:36:09;5.10;99.90
42099;DHT22;27758;55.900;8.516;2023-01-16T00:38:35;5.10;99.90
42099;DHT22;27758;55.900;8.516;2023-01-16T00:41:01;5.20;99.90
42099;DHT22;27758;55.900;8.516;2023-01-16T00:43:27;5.20;99.90
42099;DHT22;27758;55.900;8.516;2023-01-16T00:45:53;5.20;99.90
42099;DHT22;27758;55.900;8.516;2023-01-16T00:48:18;5.20;99.90
42099;DHT22;27758;55.900;8.516;2023-01-16T00:50:44;5.30;99.90
42099;DHT22;27758;55.900;8.516;2023-01-16T00:53:10;5.20;99.90
42099;DHT22;27758;55.900;8.516;2023-01-16T00:55:35;5.30;99.90
42099;DHT22;27758;55.900;8.516;2023-01-16T00:58:04;5.30;99.90
42099;DHT22;27758;55.900;8.516;2023-01-16T01:00:30;5.30;99.90
42099;DHT22;27758;55.900;8.516;2023-01-16T01:02:56;5.30;99.90
42099;DHT22;27758;55.900;8.516;2023-01-16T01:05:22;5.30;99.90
42099;DHT22;27758;55.900;8.516;2023-01-16T01:07:47;5.30;99.90
42099;DHT22;27758;55.900;8.516;2023-01-16T01:10:13;5.30;99.90
42099;DHT22;27758;55.900;8.516;2023-01-16T01:12:39;5.30;99.90
42099;DHT22;27758;55.900;8.516;2023-01-16T01:15:05;5.30;99.90
42099;DHT22;27758;55.900;8.516;2023-01-16T01:17:31;5.30;99.90
42099;DHT22;27758;55.900;8.516;2023-01-16T01:19:57;5.30;99.90
42099;DHT22;27758;55.900;8.516;2023-01-16T01:22:22;5.30;99.90
42099;DHT22;27758;55.900;8.516;2023-01-16T01:24:49;5.30;99.90
42099;DHT22;27758;55.900;8.516;2023-01-16T01:27:16;5.30;99.90
42099;DHT22;27758;55.900;8.516;2023-01-16T01:29:42;5.30;99.90
42099;DHT22;27758;55.900;8.516;2023-01-16T01:32:07;5.20;99.90
42099;DHT22;27758;55.900;8.516;2023-01-16T01:34:34;5.20;99.90
42099;DHT22;27758;55.900;8.516;2023-01-16T01:37:04;5.20;99.90
42099;DHT22;27758;55.900;8.516;2023-01-16T01:39:30;5.20;99.90
42099;DHT22;27758;55.900;8.516;2023-01-16T01:41:57;5.20;99.90
42099;DHT22;27758;55.900;8.516;2023-01-16T01:44:59;5.20;99.90
42099;DHT22;27758;55.900;8.516;2023-01-16T01:47:33;5.20;99.90
42099;DHT22;27758;55.900;8.516;2023-01-16T01:50:02;5.20;99.90
42099;DHT22;27758;55.900;8.516;2023-01-16T01:52:29;5.30;99.90
42099;DHT22;27758;55.900;8.516;2023-01-16T01:55:00;5.20;99.90
42099;DHT22;27758;55.900;8.516;2023-01-16T01:57:30;5.10;99.90
42099;DHT22;27758;55.900;8.516;2023-01-16T02:00:05;5.10;99.90
42099;DHT22;27758;55.900;8.516;2023-01-16T02:02:35;5.10;99.90
42099;DHT22;27758;55.900;8.516;2023-01-16T02:05:08;5.10;99.90
42099;DHT22;27758;55.900;8.516;2023-01-16T02:07:34;5.00;99.90
42099;DHT22;27758;55.900;8.516;2023-01-16T02:10:23;5.00;99.90
42099;DHT22;27758;55.900;8.516;2023-01-16T02:12:53;5.00;99.90
42099;DHT22;27758;55.900;8.516;2023-01-16T02:15:20;5.00;99.90
42099;DHT22;27758;55.900;8.516;2023-01-16T02:17:48;5.00;99.90
42099;DHT22;27758;55.900;8.516;2023-01-16T02:20:44;5.00;99.90
42099;DHT22;27758;55.900;8.516;2023-01-16T02:23:42;4.90;99.90
42099;DHT22;27758;55.900;8.516;2023-01-16T02:32:05;4.90;99.90
42099;DHT22;27758;55.900;8.516;2023-01-16T02:37:30;4.90;99.90
42099;DHT22;27758;55.900;8.516;2023-01-16T02:51:19;4.70;99.90
42099;DHT22;27758;55.900;8.516;2023-01-16T02:53:50;4.70;99.90
42099;DHT22;27758;55.900;8.516;2023-01-16T02:56:24;4.70;99.90
42099;DHT22;27758;55.900;8.516;2023-01-16T02:58:52;4.70;99.90
42099;DHT22;27758;55.900;8.516;2023-01-16T03:01:18;4.70;99.90
42099;DHT22;27758;55.900;8.516;2023-01-16T03:09:21;4.40;99.90
42099;DHT22;27758;55.900;8.516;2023-01-16T03:11:47;4.30;99.90
42099;DHT22;27758;55.900;8.516;2023-01-16T03:14:42;4.20;99.90
42099;DHT22;27758;55.900;8.516;2023-01-16T03:26:07;3.90;99.90
42099;DHT22;27758;55.900;8.516;2023-01-16T03:31:34;3.90;99.90
42099;DHT22;27758;55.900;8.516;2023-01-16T03:39:34;3.70;99.90
42099;DHT22;27758;55.900;8.516;2023-01-16T03:42:07;3.70;99.90
42099;DHT22;27758;55.900;8.516;2023-01-16T03:44:38;3.60;99.90
42099;DHT22;27758;55.900;8.516;2023-01-16T03:47:19;3.70;99.90
42099;DHT22;27758;55.900;8.516;2023-01-16T03:49:49;3.70;99.90
42099;DHT22;27758;55.900;8.516;2023-01-16T03:52:19;3.70;99.90
42099;DHT22;27758;55.900;8.516;2023-01-16T03:54:50;3.70;99.90
42099;DHT22;27758;55.900;8.516;2023-01-16T03:57:39;3.70;99.90
42099;DHT22;27758;55.900;8.516;2023-01-16T04:00:07;3.60;99.90
42099;DHT22;27758;55.900;8.516;2023-01-16T04:05:07;3.60;99.90
42099;DHT22;27758;55.900;8.516;2023-01-16T04:07:43;3.60;99.90
42099;DHT22;27758;55.900;8.516;2023-01-16T04:10:16;3.60;99.90
42099;DHT22;27758;55.900;8.516;2023-01-16T04:12:48;3.60;99.90
42099;DHT22;27758;55.900;8.516;2023-01-16T04:15:17;3.40;99.90
42099;DHT22;27758;55.900;8.516;2023-01-16T04:17:43;3.30;99.90
42099;DHT22;27758;55.900;8.516;2023-01-16T04:20:10;3.20;99.90
42099;DHT22;27758;55.900;8.516;2023-01-16T04:22:36;3.20;99.90
42099;DHT22;27758;55.900;8.516;2023-01-16T04:25:06;3.10;99.90
42099;DHT22;27758;55.900;8.516;2023-01-16T04:27:33;3.00;99.90
42099;DHT22;27758;55.900;8.516;2023-01-16T04:29:59;3.00;99.90
42099;DHT22;27758;55.900;8.516;2023-01-16T04:32:25;2.90;99.90
42099;DHT22;27758;55.900;8.516;2023-01-16T04:34:51;2.80;99.90
42099;DHT22;27758;55.900;8.516;2023-01-16T04:37:17;2.70;99.90
42099;DHT22;27758;55.900;8.516;2023-01-16T04:39:43;2.70;99.90
42099;DHT22;27758;55.900;8.516;2023-01-16T04:42:10;2.60;99.90
42099;DHT22;27758;55.900;8.516;2023-01-16T04:44:36;2.60;99.90
42099;DHT22;27758;55.900;8.516;2023-01-16T04:47:02;2.60;99.90
42099;DHT22;27758;55.900;8.516;2023-01-16T04:49:27;2.60;99.90
42099;DHT22;27758;55.900;8.516;2023-01-16T04:51:53;2.70;99.90
42099;DHT22;27758;55.900;8.516;2023-01-16T04:54:19;2.60;99.90
42099;DHT22;27758;55.900;8.516;2023-01-16T04:56:46;2.60;99.90
42099;DHT22;27758;55.900;8.516;2023-01-16T04:59:12;2.50;99.90
42099;DHT22;27758;55.900;8.516;2023-01-16T05:01:41;2.50;99.90
42099;DHT22;27758;55.900;8.516;2023-01-16T05:04:08;2.50;99.90
42099;DHT22;27758;55.900;8.516;2023-01-16T05:06:35;2.40;99.90
42099;DHT22;27758;55.900;8.516;2023-01-16T05:09:02;2.30;99.90
42099;DHT22;27758;55.900;8.516;2023-01-16T05:11:28;2.30;99.90
42099;DHT22;27758;55.900;8.516;2023-01-16T05:13:54;2.30;99.90
42099;DHT22;27758;55.900;8.516;2023-01-16T05:16:19;2.30;99.90
42099;DHT22;27758;55.900;8.516;2023-01-16T05:18:45;2.20;99.90
42099;DHT22;27758;55.900;8.516;2023-01-16T05:21:11;2.30;99.90
42099;DHT22;27758;55.900;8.516;2023-01-16T05:23:36;2.30;99.90
42099;DHT22;27758;55.900;8.516;2023-01-16T05:26:03;2.40;99.90
42099;DHT22;27758;55.900;8.516;2023-01-16T05:28:29;2.50;99.90
42099;DHT22;27758;55.900;8.516;2023-01-16T05:30:55;2.50;99.90
42099;DHT22;27758;55.900;8.516;2023-01-16T05:33:22;2.60;99.90
42099;DHT22;27758;55.900;8.516;2023-01-16T05:35:48;2.60;99.90
42099;DHT22;27758;55.900;8.516;2023-01-16T05:38:14;2.60;99.90
42099;DHT22;27758;55.900;8.516;2023-01-16T05:40:40;2.60;99.90
42099;DHT22;27758;55.900;8.516;2023-01-16T05:43:06;2.70;99.90
42099;DHT22;27758;55.900;8.516;2023-01-16T05:45:31;2.70;99.90
42099;DHT22;27758;55.900;8.516;2023-01-16T05:47:57;2.80;99.90
42099;DHT22;27758;55.900;8.516;2023-01-16T05:50:23;2.80;99.90
42099;DHT22;27758;55.900;8.516;2023-01-16T05:52:49;2.80;99.90
42099;DHT22;27758;55.900;8.516;2023-01-16T05:55:15;2.80;99.90
42099;DHT22;27758;55.900;8.516;2023-01-16T05:57:41;2.90;99.90
42099;DHT22;27758;55.900;8.516;2023-01-16T06:00:08;2.80;99.90
42099;DHT22;27758;55.900;8.516;2023-01-16T06:02:34;2.90;99.90
42099;DHT22;27758;55.900;8.516;2023-01-16T06:04:59;2.90;99.90
42099;DHT22;27758;55.900;8.516;2023-01-16T06:07:25;2.90;99.90
42099;DHT22;27758;55.900;8.516;2023-01-16T06:09:51;2.80;99.90
42099;DHT22;27758;55.900;8.516;2023-01-16T06:12:18;2.80;99.90
42099;DHT22;27758;55.900;8.516;2023-01-16T06:14:44;2.70;99.90
42099;DHT22;27758;55.900;8.516;2023-01-16T06:17:10;2.70;99.90
42099;DHT22;27758;55.900;8.516;2023-01-16T06:19:36;2.70;99.90
42099;DHT22;27758;55.900;8.516;2023-01-16T06:22:02;2.70;99.90
42099;DHT22;27758;55.900;8.516;2023-01-16T06:24:28;2.70;99.90
42099;DHT22;27758;55.900;8.516;2023-01-16T06:26:53;2.60;99.90
42099;DHT22;27758;55.900;8.516;2023-01-16T06:29:19;2.60;99.90
42099;DHT22;27758;55.900;8.516;2023-01-16T06:31:45;2.50;99.90
42099;DHT22;27758;55.900;8.516;2023-01-16T06:34:11;2.50;99.90
42099;DHT22;27758;55.900;8.516;2023-01-16T06:36:36;2.40;99.90
42099;DHT22;27758;55.900;8.516;2023-01-16T06:39:02;2.50;99.90
42099;DHT22;27758;55.900;8.516;2023-01-16T06:41:28;2.50;99.90
42099;DHT22;27758;55.900;8.516;2023-01-16T06:43:54;2.50;99.90
42099;DHT22;27758;55.900;8.516;2023-01-16T06:46:19;2.40;99.90
42099;DHT22;27758;55.900;8.516;2023-01-16T06:48:45;2.40;99.90
42099;DHT22;27758;55.900;8.516;2023-01-16T06:51:11;2.50;99.90
42099;DHT22;27758;55.900;8.516;2023-01-16T06:53:37;2.40;99.90
42099;DHT22;27758;55.900;8.516;2023-01-16T06:56:03;2.50;99.90
42099;DHT22;27758;55.900;8.516;2023-01-16T06:58:28;2.50;99.90
42099;DHT22;27758;55.900;8.516;2023-01-16T07:00:54;2.50;99.90
42099;DHT22;27758;55.900;8.516;2023-01-16T07:03:21;2.60;99.90
42099;DHT22;27758;55.900;8.516;2023-01-16T07:05:47;2.50;99.90
42099;DHT22;27758;55.900;8.516;2023-01-16T07:08:13;2.40;99.90
42099;DHT22;27758;55.900;8.516;2023-01-16T07:10:39;2.40;99.90
42099;DHT22;27758;55.900;8.516;2023-01-16T07:13:05;2.50;99.90
42099;DHT22;27758;55.900;8.516;2023-01-16T07:15:31;2.40;99.90
42099;DHT22;27758;55.900;8.516;2023-01-16T07:18:16;2.30;99.90
42099;DHT22;27758;55.900;8.516;2023-01-16T07:21:02;2.30;99.90
42099;DHT22;27758;55.900;8.516;2023-01-16T07:24:01;2.40;99.90
42099;DHT22;27758;55.900;8.516;2023-01-16T07:26:27;2.30;99.90
42099;DHT22;27758;55.900;8.516;2023-01-16T07:28:53;2.30;99.90
42099;DHT22;27758;55.900;8.516;2023-01-16T07:31:20;2.30;99.90
42099;DHT22;27758;55.900;8.516;2023-01-16T07:33:47;2.30;99.90
42099;DHT22;27758;55.900;8.516;2023-01-16T07:36:12;2.30;99.90
42099;DHT22;27758;55.900;8.516;2023-01-16T07:38:38;2.30;99.90
42099;DHT22;27758;55.900;8.516;2023-01-16T07:41:04;2.40;99.90
42099;DHT22;27758;55.900;8.516;2023-01-16T07:43:30;2.40;99.90
42099;DHT22;27758;55.900;8.516;2023-01-16T07:45:55;2.40;99.90
42099;DHT22;27758;55.900;8.516;2023-01-16T07:48:22;2.40;99.90
42099;DHT22;27758;55.900;8.516;2023-01-16T07:50:52;2.40;99.90
42099;DHT22;27758;55.900;8.516;2023-01-16T07:53:19;2.40;99.90
42099;DHT22;27758;55.900;8.516;2023-01-16T07:55:47;2.40;99.90
42099;DHT22;27758;55.900;8.516;2023-01-16T07:58:14;2.40;99.90
42099;DHT22;27758;55.900;8.516;2023-01-16T08:00:40;2.30;99.90
42099;DHT22;27758;55.900;8.516;2023-01-16T08:03:05;2.40;99.90
42099;DHT22;27758;55.900;8.516;2023-01-16T08:05:31;2.50;99.90
42099;DHT22;27758;55.900;8.516;2023-01-16T08:07:57;2.60;99.90
42099;DHT22;27758;55.900;8.516;2023-01-16T08:10:22;2.50;99.90
42099;DHT22;27758;55.900;8.516;2023-01-16T08:12:48;2.60;99.90
42099;DHT22;27758;55.900;8.516;2023-01-16T08:15:14;2.50;99.90
42099;DHT22;27758;55.900;8.516;2023-01-16T08:17:39;2.60;99.90
42099;DHT22;27758;55.900;8.516;2023-01-16T08:20:07;2.60;99.90
42099;DHT22;27758;55.900;8.516;2023-01-16T08:22:33;2.70;99.90
42099;DHT22;27758;55.900;8.516;2023-01-16T08:24:58;2.80;99.90
42099;DHT22;27758;55.900;8.516;2023-01-16T08:27:24;2.90;99.90
42099;DHT22;27758;55.900;8.516;2023-01-16T08:29:50;3.00;99.90
42099;DHT22;27758;55.900;8.516;2023-01-16T08:32:15;3.10;99.90
42099;DHT22;27758;55.900;8.516;2023-01-16T08:34:42;3.10;99.90
42099;DHT22;27758;55.900;8.516;2023-01-16T08:37:08;3.20;99.90
42099;DHT22;27758;55.900;8.516;2023-01-16T08:39:36;3.30;99.90
42099;DHT22;27758;55.900;8.516;2023-01-16T08:42:02;3.30;99.90
42099;DHT22;27758;55.900;8.516;2023-01-16T08:44:46;3.40;99.90
42099;DHT22;27758;55.900;8.516;2023-01-16T08:47:31;3.40;99.90
42099;DHT22;27758;55.900;8.516;2023-01-16T08:50:18;3.50;99.90
42099;DHT22;27758;55.900;8.516;2023-01-16T08:53:07;3.40;99.90
42099;DHT22;27758;55.900;8.516;2023-01-16T08:55:33;3.40;99.90
42099;DHT22;27758;55.900;8.516;2023-01-16T08:57:59;3.50;99.90
42099;DHT22;27758;55.900;8.516;2023-01-16T09:00:28;3.60;99.90
42099;DHT22;27758;55.900;8.516;2023-01-16T09:02:55;3.70;99.90
42099;DHT22;27758;55.900;8.516;2023-01-16T09:05:23;3.80;99.90
42099;DHT22;27758;55.900;8.516;2023-01-16T09:07:49;3.90;99.90
42099;DHT22;27758;55.900;8.516;2023-01-16T09:10:15;4.00;99.90
42099;DHT22;27758;55.900;8.516;2023-01-16T09:12:41;4.10;99.90
42099;DHT22;27758;55.900;8.516;2023-01-16T09:15:25;4.50;99.90
42099;DHT22;27758;55.900;8.516;2023-01-16T09:17:51;4.40;99.90
42099;DHT22;27758;55.900;8.516;2023-01-16T09:20:17;4.20;99.90
42099;DHT22;27758;55.900;8.516;2023-01-16T09:22:42;4.10;99.90
42099;DHT22;27758;55.900;8.516;2023-01-16T09:25:09;4.00;99.90
42099;DHT22;27758;55.900;8.516;2023-01-16T09:27:35;4.00;99.90
42099;DHT22;27758;55.900;8.516;2023-01-16T09:30:00;3.90;99.90
42099;DHT22;27758;55.900;8.516;2023-01-16T09:32:26;3.90;99.90
42099;DHT22;27758;55.900;8.516;2023-01-16T09:34:52;3.90;99.90
42099;DHT22;27758;55.900;8.516;2023-01-16T09:37:18;3.80;99.90
42099;DHT22;27758;55.900;8.516;2023-01-16T09:39:44;3.90;99.90
42099;DHT22;27758;55.900;8.516;2023-01-16T09:42:35;3.90;99.90
42099;DHT22;27758;55.900;8.516;2023-01-16T09:45:25;3.90;99.90
42099;DHT22;27758;55.900;8.516;2023-01-16T09:48:03;4.00;99.90
42099;DHT22;27758;55.900;8.516;2023-01-16T09:52:57;4.30;99.90
42099;DHT22;27758;55.900;8.516;2023-01-16T09:55:45;4.40;99.90
42099;DHT22;27758;55.900;8.516;2023-01-16T09:58:30;4.40;99.90
42099;DHT22;27758;55.900;8.516;2023-01-16T10:01:10;4.40;99.90
42099;DHT22;27758;55.900;8.516;2023-01-16T10:03:38;4.50;99.90
42099;DHT22;27758;55.900;8.516;2023-01-16T10:11:31;4.50;99.90
42099;DHT22;27758;55.900;8.516;2023-01-16T10:25:27;4.80;99.90
42099;DHT22;27758;55.900;8.516;2023-01-16T10:30:32;4.90;99.90
42099;DHT22;27758;55.900;8.516;2023-01-16T10:33:19;4.80;99.90
42099;DHT22;27758;55.900;8.516;2023-01-16T10:35:49;4.90;99.90
42099;DHT22;27758;55.900;8.516;2023-01-16T10:38:37;4.90;99.90
42099;DHT22;27758;55.900;8.516;2023-01-16T10:41:19;4.90;99.90
42099;DHT22;27758;55.900;8.516;2023-01-16T10:44:11;4.80;99.90
42099;DHT22;27758;55.900;8.516;2023-01-16T10:47:03;4.70;99.90
42099;DHT22;27758;55.900;8.516;2023-01-16T10:49:52;4.70;99.90
42099;DHT22;27758;55.900;8.516;2023-01-16T10:52:17;4.70;99.90
42099;DHT22;27758;55.900;8.516;2023-01-16T10:54:43;4.70;99.90
42099;DHT22;27758;55.900;8.516;2023-01-16T10:57:16;4.60;99.90
42099;DHT22;27758;55.900;8.516;2023-01-16T10:59:44;4.60;99.90
42099;DHT22;27758;55.900;8.516;2023-01-16T11:02:17;4.60;99.90
42099;DHT22;27758;55.900;8.516;2023-01-16T11:04:48;4.70;99.90
42099;DHT22;27758;55.900;8.516;2023-01-16T11:07:18;4.80;99.90
42099;DHT22;27758;55.900;8.516;2023-01-16T11:09:45;4.80;99.90
42099;DHT22;27758;55.900;8.516;2023-01-16T11:12:25;4.90;99.90
42099;DHT22;27758;55.900;8.516;2023-01-16T11:15:20;4.90;99.90
42099;DHT22;27758;55.900;8.516;2023-01-16T11:18:22;4.80;99.90
42099;DHT22;27758;55.900;8.516;2023-01-16T11:20:55;4.80;99.90
42099;DHT22;27758;55.900;8.516;2023-01-16T11:23:25;4.70;99.90
42099;DHT22;27758;55.900;8.516;2023-01-16T11:25:54;4.70;99.90
42099;DHT22;27758;55.900;8.516;2023-01-16T11:28:30;4.70;99.90
42099;DHT22;27758;55.900;8.516;2023-01-16T11:31:24;4.70;99.90
42099;DHT22;27758;55.900;8.516;2023-01-16T11:33:54;4.70;99.90
42099;DHT22;27758;55.900;8.516;2023-01-16T11:36:25;4.70;99.90
42099;DHT22;27758;55.900;8.516;2023-01-16T11:38:53;4.70;99.90
42099;DHT22;27758;55.900;8.516;2023-01-16T11:41:24;4.70;99.90
42099;DHT22;27758;55.900;8.516;2023-01-16T11:44:21;4.70;99.90
42099;DHT22;27758;55.900;8.516;2023-01-16T11:47:12;4.80;99.90
42099;DHT22;27758;55.900;8.516;2023-01-16T11:49:49;4.70;99.90
42099;DHT22;27758;55.900;8.516;2023-01-16T11:52:18;4.70;99.90
42099;DHT22;27758;55.900;8.516;2023-01-16T11:54:57;4.70;99.90
42099;DHT22;27758;55.900;8.516;2023-01-16T11:57:42;4.70;99.90
42099;DHT22;27758;55.900;8.516;2023-01-16T12:14:06;4.70;99.90
42099;DHT22;27758;55.900;8.516;2023-01-16T12:27:57;4.70;99.90
42099;DHT22;27758;55.900;8.516;2023-01-16T12:36:08;4.70;99.90
42099;DHT22;27758;55.900;8.516;2023-01-16T12:38:41;4.70;99.90
42099;DHT22;27758;55.900;8.516;2023-01-16T12:41:39;4.70;99.90
42099;DHT22;27758;55.900;8.516;2023-01-16T12:50:22;4.80;99.90
42099;DHT22;27758;55.900;8.516;2023-01-16T12:58:35;4.90;99.90
42099;DHT22;27758;55.900;8.516;2023-01-16T13:01:12;4.90;99.90
42099;DHT22;27758;55.900;8.516;2023-01-16T13:06:32;4.90;99.90
42099;DHT22;27758;55.900;8.516;2023-01-16T13:09:01;4.90;99.90
42099;DHT22;27758;55.900;8.516;2023-01-16T13:11:49;4.90;99.90
42099;DHT22;27758;55.900;8.516;2023-01-16T13:14:36;4.90;99.90
42099;DHT22;27758;55.900;8.516;2023-01-16T13:17:10;4.90;99.90
42099;DHT22;27758;55.900;8.516;2023-01-16T13:19:40;4.90;99.90
42099;DHT22;27758;55.900;8.516;2023-01-16T13:22:23;4.90;99.90
42099;DHT22;27758;55.900;8.516;2023-01-16T13:25:05;4.90;99.90
42099;DHT22;27758;55.900;8.516;2023-01-16T13:27:47;4.90;99.90
42099;DHT22;27758;55.900;8.516;2023-01-16T13:30:16;4.90;99.90
42099;DHT22;27758;55.900;8.516;2023-01-16T13:32:46;4.90;99.90
42099;DHT22;27758;55.900;8.516;2023-01-16T13:38:29;4.80;99.90
42099;DHT22;27758;55.900;8.516;2023-01-16T13:41:37;4.80;99.90
42099;DHT22;27758;55.900;8.516;2023-01-16T13:47:08;4.70;99.90
42099;DHT22;27758;55.900;8.516;2023-01-16T13:49:34;4.70;99.90
42099;DHT22;27758;55.900;8.516;2023-01-16T13:52:02;4.60;99.90
42099;DHT22;27758;55.900;8.516;2023-01-16T13:54:41;4.50;99.90
42099;DHT22;27758;55.900;8.516;2023-01-16T13:57:21;4.40;99.90
42099;DHT22;27758;55.900;8.516;2023-01-16T13:59:58;4.30;99.90
42099;DHT22;27758;55.900;8.516;2023-01-16T14:02:41;4.30;99.90
42099;DHT22;27758;55.900;8.516;2023-01-16T14:10:46;4.20;99.90
42099;DHT22;27758;55.900;8.516;2023-01-16T14:13:37;4.20;99.90
42099;DHT22;27758;55.900;8.516;2023-01-16T14:16:33;4.20;99.90
42099;DHT22;27758;55.900;8.516;2023-01-16T14:21:41;4.20;99.90
42099;DHT22;27758;55.900;8.516;2023-01-16T14:24:26;4.20;99.90
42099;DHT22;27758;55.900;8.516;2023-01-16T14:26:58;4.10;99.90
42099;DHT22;27758;55.900;8.516;2023-01-16T14:29:34;4.20;99.90
42099;DHT22;27758;55.900;8.516;2023-01-16T14:32:04;4.20;99.90
42099;DHT22;27758;55.900;8.516;2023-01-16T14:34:57;4.20;99.90
42099;DHT22;27758;55.900;8.516;2023-01-16T14:37:29;4.30;99.90
42099;DHT22;27758;55.900;8.516;2023-01-16T14:40:18;4.20;99.90
42099;DHT22;27758;55.900;8.516;2023-01-16T14:45:37;4.30;99.90
42099;DHT22;27758;55.900;8.516;2023-01-16T14:54:07;4.30;99.90
42099;DHT22;27758;55.900;8.516;2023-01-16T14:57:18;4.30;99.90
42099;DHT22;27758;55.900;8.516;2023-01-16T15:05:20;4.30;99.90
42099;DHT22;27758;55.900;8.516;2023-01-16T15:07:54;4.40;99.90
42099;DHT22;27758;55.900;8.516;2023-01-16T15:10:36;4.30;99.90
42099;DHT22;27758;55.900;8.516;2023-01-16T15:13:22;4.40;99.90
42099;DHT22;27758;55.900;8.516;2023-01-16T15:15:56;4.30;99.90
42099;DHT22;27758;55.900;8.516;2023-01-16T15:18:23;4.30;99.90
42099;DHT22;27758;55.900;8.516;2023-01-16T15:21:15;4.20;99.90
42099;DHT22;27758;55.900;8.516;2023-01-16T15:24:05;4.20;99.90
42099;DHT22;27758;55.900;8.516;2023-01-16T15:32:01;4.20;99.90
42099;DHT22;27758;55.900;8.516;2023-01-16T15:34:30;4.20;99.90
42099;DHT22;27758;55.900;8.516;2023-01-16T15:36:57;4.10;99.90
42099;DHT22;27758;55.900;8.516;2023-01-16T15:42:29;4.10;99.90
42099;DHT22;27758;55.900;8.516;2023-01-16T15:45:25;4.00;99.90
42099;DHT22;27758;55.900;8.516;2023-01-16T15:51:00;4.00;99.90
42099;DHT22;27758;55.900;8.516;2023-01-16T15:53:36;4.00;99.90
42099;DHT22;27758;55.900;8.516;2023-01-16T15:56:33;4.00;99.90
42099;DHT22;27758;55.900;8.516;2023-01-16T15:58:59;4.00;99.90
42099;DHT22;27758;55.900;8.516;2023-01-16T16:01:30;4.00;99.90
42099;DHT22;27758;55.900;8.516;2023-01-16T16:03:57;3.90;99.90
42099;DHT22;27758;55.900;8.516;2023-01-16T16:06:26;3.90;99.90
42099;DHT22;27758;55.900;8.516;2023-01-16T16:08:55;4.00;99.90
42099;DHT22;27758;55.900;8.516;2023-01-16T16:11:30;4.00;99.90
42099;DHT22;27758;55.900;8.516;2023-01-16T16:14:38;3.90;99.90
42099;DHT22;27758;55.900;8.516;2023-01-16T16:17:30;3.80;99.90
42099;DHT22;27758;55.900;8.516;2023-01-16T16:20:37;3.90;99.90
42099;DHT22;27758;55.900;8.516;2023-01-16T16:23:16;3.90;99.90
42099;DHT22;27758;55.900;8.516;2023-01-16T16:28:26;3.90;99.90
42099;DHT22;27758;55.900;8.516;2023-01-16T16:31:01;3.80;99.90
42099;DHT22;27758;55.900;8.516;2023-01-16T16:33:28;3.90;99.90
42099;DHT22;27758;55.900;8.516;2023-01-16T16:35:57;3.80;99.90
42099;DHT22;27758;55.900;8.516;2023-01-16T16:38:27;3.90;99.90
42099;DHT22;27758;55.900;8.516;2023-01-16T16:43:43;4.00;99.90
42099;DHT22;27758;55.900;8.516;2023-01-16T16:48:50;3.90;99.90
42099;DHT22;27758;55.900;8.516;2023-01-16T16:51:26;4.00;99.90
42099;DHT22;27758;55.900;8.516;2023-01-16T16:53:54;4.10;99.90
42099;DHT22;27758;55.900;8.516;2023-01-16T16:56:25;4.00;99.90
42099;DHT22;27758;55.900;8.516;2023-01-16T16:58:52;4.00;99.90
42099;DHT22;27758;55.900;8.516;2023-01-16T17:01:20;4.00;99.90
42099;DHT22;27758;55.900;8.516;2023-01-16T17:03:51;3.90;99.90
42099;DHT22;27758;55.900;8.516;2023-01-16T17:06:23;4.00;99.90
42099;DHT22;27758;55.900;8.516;2023-01-16T17:08:49;4.00;99.90
42099;DHT22;27758;55.900;8.516;2023-01-16T17:11:15;4.00;99.90
42099;DHT22;27758;55.900;8.516;2023-01-16T17:13:41;3.90;99.90
42099;DHT22;27758;55.900;8.516;2023-01-16T17:16:22;4.00;99.90
42099;DHT22;27758;55.900;8.516;2023-01-16T17:18:54;4.00;99.90
42099;DHT22;27758;55.900;8.516;2023-01-16T17:21:22;4.00;99.90
42099;DHT22;27758;55.900;8.516;2023-01-16T17:23:47;4.00;99.90
42099;DHT22;27758;55.900;8.516;2023-01-16T17:26:13;4.10;99.90
42099;DHT22;27758;55.900;8.516;2023-01-16T17:28:41;4.00;99.90
42099;DHT22;27758;55.900;8.516;2023-01-16T17:31:12;4.10;99.90
42099;DHT22;27758;55.900;8.516;2023-01-16T17:33:38;4.10;99.90
42099;DHT22;27758;55.900;8.516;2023-01-16T17:36:04;4.10;99.90
42099;DHT22;27758;55.900;8.516;2023-01-16T17:38:38;4.10;99.90
42099;DHT22;27758;55.900;8.516;2023-01-16T17:41:04;4.10;99.90
42099;DHT22;27758;55.900;8.516;2023-01-16T17:43:32;4.10;99.90
42099;DHT22;27758;55.900;8.516;2023-01-16T17:46:17;4.10;99.90
42099;DHT22;27758;55.900;8.516;2023-01-16T17:48:48;4.00;99.90
42099;DHT22;27758;55.900;8.516;2023-01-16T17:51:14;4.00;99.90
42099;DHT22;27758;55.900;8.516;2023-01-16T17:53:39;4.00;99.90
42099;DHT22;27758;55.900;8.516;2023-01-16T17:56:07;4.00;99.90
42099;DHT22;27758;55.900;8.516;2023-01-16T17:58:34;4.00;99.90
42099;DHT22;27758;55.900;8.516;2023-01-16T18:01:14;4.00;99.90
42099;DHT22;27758;55.900;8.516;2023-01-16T18:03:44;3.90;99.90
42099;DHT22;27758;55.900;8.516;2023-01-16T18:06:19;3.90;99.90
42099;DHT22;27758;55.900;8.516;2023-01-16T18:08:49;3.80;99.90
42099;DHT22;27758;55.900;8.516;2023-01-16T18:11:16;3.90;99.90
42099;DHT22;27758;55.900;8.516;2023-01-16T18:14:00;3.80;99.90
42099;DHT22;27758;55.900;8.516;2023-01-16T18:16:44;3.80;99.90
42099;DHT22;27758;55.900;8.516;2023-01-16T18:19:29;3.70;99.90
42099;DHT22;27758;55.900;8.516;2023-01-16T18:21:54;3.70;99.90
42099;DHT22;27758;55.900;8.516;2023-01-16T18:24:31;3.60;99.90
42099;DHT22;27758;55.900;8.516;2023-01-16T18:26:58;3.50;99.90
42099;DHT22;27758;55.900;8.516;2023-01-16T18:29:24;3.60;99.90
42099;DHT22;27758;55.900;8.516;2023-01-16T18:31:50;3.50;99.90
42099;DHT22;27758;55.900;8.516;2023-01-16T18:34:34;3.50;99.90
42099;DHT22;27758;55.900;8.516;2023-01-16T18:37:00;3.60;99.90
42099;DHT22;27758;55.900;8.516;2023-01-16T18:39:26;3.50;99.90
42099;DHT22;27758;55.900;8.516;2023-01-16T18:42:27;3.40;99.90
42099;DHT22;27758;55.900;8.516;2023-01-16T18:45:15;3.40;99.90
42099;DHT22;27758;55.900;8.516;2023-01-16T18:48:00;3.30;99.90
42099;DHT22;27758;55.900;8.516;2023-01-16T18:50:44;3.20;99.90
42099;DHT22;27758;55.900;8.516;2023-01-16T18:53:41;3.10;99.90
42099;DHT22;27758;55.900;8.516;2023-01-16T18:56:29;3.00;99.90